createdAt,value
2023-05-19T00:00:05.489Z,1.58
2023-05-19T00:02:34.349Z,1.67
2023-05-19T00:05:02.831Z,1.73
2023-05-19T00:07:31.971Z,1.20
2023-05-19T00:09:59.717Z,1.60
2023-05-19T00:12:27.828Z,1.83
2023-05-19T00:14:55.475Z,1.92
2023-05-19T00:17:23.032Z,1.58
2023-05-19T00:19:50.738Z,1.30
2023-05-19T00:22:18.590Z,1.63
2023-05-19T00:24:46.191Z,2.15
2023-05-19T00:27:13.901Z,1.75
2023-05-19T00:29:42.156Z,1.48
2023-05-19T00:32:10.052Z,1.73
2023-05-19T00:34:37.770Z,2.25
2023-05-19T00:37:05.367Z,2.85
2023-05-19T00:39:33.013Z,2.95
2023-05-19T00:42:00.561Z,2.85
2023-05-19T00:44:28.195Z,3.35
2023-05-19T00:46:55.907Z,2.70
2023-05-19T00:49:23.510Z,3.60
2023-05-19T00:51:51.566Z,3.03
2023-05-19T00:54:19.595Z,2.03
2023-05-19T00:56:47.236Z,1.55
2023-05-19T00:59:15.037Z,1.65
2023-05-19T01:01:42.742Z,1.73
2023-05-19T01:04:14.963Z,2.42
2023-05-19T01:06:42.500Z,2.53
2023-05-19T01:09:10.125Z,1.73
2023-05-19T01:11:38.026Z,2.00
2023-05-19T01:14:05.603Z,3.15
2023-05-19T01:16:44.386Z,3.25
2023-05-19T01:19:21.631Z,2.47
2023-05-19T01:21:55.295Z,2.10
2023-05-19T01:24:55.814Z,2.20
2023-05-19T01:27:30.374Z,3.08
2023-05-19T01:30:25.975Z,2.10
2023-05-19T01:32:59.331Z,2.47
2023-05-19T01:35:27.528Z,2.70
2023-05-19T01:37:56.244Z,3.05
2023-05-19T01:40:25.206Z,3.72
2023-05-19T01:42:57.703Z,2.38
2023-05-19T01:45:26.518Z,2.15
2023-05-19T01:47:58.333Z,2.45
2023-05-19T01:50:26.134Z,2.20
2023-05-19T01:52:53.871Z,2.28
2023-05-19T01:55:23.533Z,2.83
2023-05-19T01:58:06.410Z,2.60
2023-05-19T02:00:45.740Z,1.58
2023-05-19T02:03:16.294Z,2.20
2023-05-19T02:05:52.932Z,2.22
2023-05-19T02:08:23.590Z,2.08
2023-05-19T02:11:03.669Z,1.92
2023-05-19T02:13:33.097Z,1.83
2023-05-19T02:16:06.881Z,2.45
2023-05-19T02:18:35.916Z,3.55
2023-05-19T02:21:03.578Z,2.25
2023-05-19T02:23:31.199Z,3.15
2023-05-19T02:25:59.034Z,2.47
2023-05-19T02:28:29.348Z,1.83
2023-05-19T02:30:56.864Z,2.35
2023-05-19T02:33:26.942Z,2.33
2023-05-19T02:35:54.643Z,2.42
2023-05-19T02:38:22.209Z,2.35
2023-05-19T02:40:49.766Z,2.17
2023-05-19T02:43:17.449Z,2.67
2023-05-19T02:45:45.161Z,2.47
2023-05-19T02:48:12.706Z,2.40
2023-05-19T02:50:40.346Z,2.05
2023-05-19T02:53:07.814Z,2.72
2023-05-19T02:55:35.344Z,2.40
2023-05-19T02:58:02.972Z,1.88
2023-05-19T03:00:30.730Z,2.33
2023-05-19T03:03:04.893Z,2.00
2023-05-19T03:05:32.624Z,3.20
2023-05-19T03:08:00.225Z,2.25
2023-05-19T03:10:30.867Z,2.17
2023-05-19T03:12:59.256Z,2.50
2023-05-19T03:15:26.832Z,2.22
2023-05-19T03:17:54.479Z,2.80
2023-05-19T03:20:25.468Z,2.80
2023-05-19T03:22:53.557Z,2.10
2023-05-19T03:25:21.428Z,1.98
2023-05-19T03:27:49.120Z,2.40
2023-05-19T03:30:27.514Z,3.00
2023-05-19T03:32:55.076Z,2.30
2023-05-19T03:35:22.673Z,2.85
2023-05-19T03:37:50.136Z,2.45
2023-05-19T03:40:19.638Z,1.98
2023-05-19T03:42:47.134Z,2.50
2023-05-19T03:45:14.876Z,2.47
2023-05-19T03:47:42.742Z,2.30
2023-05-19T03:50:10.533Z,1.90
2023-05-19T03:52:39.244Z,2.00
2023-05-19T03:55:13.318Z,2.30
2023-05-19T03:57:41.946Z,3.03
2023-05-19T04:00:11.802Z,2.50
2023-05-19T04:02:39.405Z,2.20
2023-05-19T04:05:07.847Z,2.03
2023-05-19T04:07:35.298Z,1.83
2023-05-19T04:10:05.517Z,2.42
2023-05-19T04:12:33.710Z,1.70
2023-05-19T04:15:03.484Z,2.17
2023-05-19T04:17:31.122Z,2.20
2023-05-19T04:20:01.725Z,1.55
2023-05-19T04:22:30.102Z,3.25
2023-05-19T04:24:57.666Z,2.30
2023-05-19T04:27:25.424Z,2.22
2023-05-19T04:29:53.344Z,2.40
2023-05-19T04:32:21.061Z,1.90
2023-05-19T04:34:49.603Z,1.63
2023-05-19T04:37:17.391Z,2.78
2023-05-19T04:39:46.056Z,1.98
2023-05-19T04:42:13.988Z,1.55
2023-05-19T04:44:41.650Z,2.17
2023-05-19T04:47:09.689Z,2.00
2023-05-19T04:49:40.155Z,1.90
2023-05-19T04:52:08.743Z,1.80
2023-05-19T04:54:37.143Z,1.85
2023-05-19T04:57:04.792Z,1.20
2023-05-19T04:59:32.334Z,1.90
2023-05-19T05:02:02.876Z,1.42
2023-05-19T05:04:30.601Z,2.47
2023-05-19T05:06:58.092Z,2.70
2023-05-19T05:09:25.724Z,1.73
2023-05-19T05:11:53.525Z,2.08
2023-05-19T05:14:21.604Z,1.48
2023-05-19T05:16:49.507Z,1.30
2023-05-19T05:19:17.323Z,1.88
2023-05-19T05:21:45.039Z,2.25
2023-05-19T05:24:13.113Z,1.45
2023-05-19T05:26:40.795Z,2.13
2023-05-19T05:29:09.045Z,1.35
2023-05-19T05:31:38.548Z,1.85
2023-05-19T05:34:06.344Z,1.60
2023-05-19T05:36:35.659Z,1.67
2023-05-19T05:39:03.353Z,2.15
2023-05-19T05:41:35.934Z,2.67
2023-05-19T05:44:03.705Z,4.45
2023-05-19T05:46:31.344Z,2.38
2023-05-19T05:48:59.073Z,3.38
2023-05-19T05:51:27.039Z,1.55
2023-05-19T05:53:55.500Z,2.38
2023-05-19T05:56:23.399Z,2.13
2023-05-19T05:58:51.311Z,2.53
2023-05-19T06:01:20.690Z,1.27
2023-05-19T06:03:48.294Z,2.17
2023-05-19T06:06:15.848Z,1.88
2023-05-19T06:08:45.498Z,1.35
2023-05-19T06:11:13.051Z,2.83
2023-05-19T06:13:43.574Z,2.70
2023-05-19T06:16:13.475Z,2.08
2023-05-19T06:18:41.391Z,1.60
2023-05-19T06:21:11.156Z,2.88
2023-05-19T06:23:38.653Z,2.28
2023-05-19T06:26:06.712Z,1.80
2023-05-19T06:28:35.792Z,1.83
2023-05-19T06:31:03.682Z,1.98
2023-05-19T06:33:31.195Z,2.22
2023-05-19T06:36:01.851Z,1.98
2023-05-19T06:38:29.310Z,1.63
2023-05-19T06:40:56.791Z,2.38
2023-05-19T06:43:26.517Z,1.75
2023-05-19T06:45:54.268Z,1.73
2023-05-19T06:48:22.041Z,1.98
2023-05-19T06:50:49.607Z,1.95
2023-05-19T06:53:17.802Z,2.63
2023-05-19T06:55:57.979Z,2.17
2023-05-19T06:58:27.399Z,1.92
2023-05-19T07:00:55.192Z,2.55
2023-05-19T07:03:25.547Z,2.42
2023-05-19T07:05:53.398Z,2.85
2023-05-19T07:08:20.876Z,2.35
2023-05-19T07:10:48.355Z,2.03
2023-05-19T07:13:16.055Z,1.83
2023-05-19T07:15:43.629Z,1.80
2023-05-19T07:18:11.799Z,1.90
2023-05-19T07:20:42.260Z,1.67
2023-05-19T07:23:09.785Z,1.67
2023-05-19T07:25:37.342Z,3.03
2023-05-19T07:28:04.871Z,1.92
2023-05-19T07:30:32.637Z,2.25
2023-05-19T07:33:00.358Z,2.03
2023-05-19T07:35:27.949Z,1.98
2023-05-19T07:37:55.432Z,1.67
2023-05-19T07:40:23.835Z,1.83
2023-05-19T07:42:51.754Z,1.70
2023-05-19T07:45:19.317Z,2.28
2023-05-19T07:47:49.681Z,2.08
2023-05-19T07:50:17.269Z,2.08
2023-05-19T07:52:45.385Z,2.03
2023-05-19T07:55:31.920Z,2.10
2023-05-19T07:57:59.680Z,1.60
2023-05-19T08:00:27.262Z,2.05
2023-05-19T08:02:58.382Z,1.75
2023-05-19T08:05:28.722Z,1.67
2023-05-19T08:08:06.111Z,1.67
2023-05-19T08:10:33.948Z,3.45
2023-05-19T08:13:01.916Z,2.50
2023-05-19T08:15:29.610Z,1.55
2023-05-19T08:17:57.239Z,1.70
2023-05-19T08:20:25.218Z,1.80
2023-05-19T08:22:55.775Z,1.83
2023-05-19T08:25:26.301Z,1.80
2023-05-19T08:27:57.470Z,2.45
2023-05-19T08:30:35.240Z,1.80
2023-05-19T08:35:31.750Z,1.50
2023-05-19T08:37:59.250Z,2.05
2023-05-19T08:40:32.337Z,1.83
2023-05-19T08:43:00.264Z,1.80
2023-05-19T08:45:28.305Z,2.42
2023-05-19T08:48:00.017Z,1.95
2023-05-19T08:50:31.516Z,2.00
2023-05-19T08:53:31.893Z,2.15
2023-05-19T08:56:11.131Z,2.50
2023-05-19T08:58:44.525Z,2.17
2023-05-19T09:01:14.771Z,3.05
2023-05-19T09:03:43.648Z,2.05
2023-05-19T09:06:13.280Z,1.73
2023-05-19T09:08:41.904Z,2.22
2023-05-19T09:11:12.896Z,2.63
2023-05-19T09:13:40.524Z,1.65
2023-05-19T09:16:08.807Z,2.85
2023-05-19T09:18:39.540Z,2.08
2023-05-19T09:21:07.868Z,2.83
2023-05-19T09:23:35.449Z,2.00
2023-05-19T09:26:04.916Z,2.97
2023-05-19T09:28:33.966Z,3.20
2023-05-19T09:31:02.325Z,2.63
2023-05-19T09:33:30.160Z,1.92
2023-05-19T09:35:58.131Z,2.13
2023-05-19T09:38:26.941Z,3.67
2023-05-19T09:40:57.841Z,2.35
2023-05-19T09:43:25.481Z,2.40
2023-05-19T09:45:56.975Z,2.08
2023-05-19T09:48:26.835Z,2.00
2023-05-19T09:50:54.890Z,2.53
2023-05-19T09:53:23.137Z,2.17
2023-05-19T09:55:52.157Z,3.25
2023-05-19T09:58:20.798Z,2.80
2023-05-19T10:00:48.572Z,2.63
2023-05-19T10:03:18.373Z,2.47
2023-05-19T10:05:46.189Z,3.80
2023-05-19T10:08:14.932Z,3.08
2023-05-19T10:10:42.673Z,2.63
2023-05-19T10:13:13.353Z,2.70
2023-05-19T10:15:57.210Z,2.33
2023-05-19T10:18:27.325Z,3.85
2023-05-19T10:20:55.207Z,3.15
2023-05-19T10:23:23.090Z,4.10
2023-05-19T10:25:52.443Z,2.92
2023-05-19T10:28:22.035Z,2.75
2023-05-19T10:30:54.310Z,2.67
2023-05-19T10:33:25.868Z,2.73
2023-05-19T10:36:03.287Z,2.60
2023-05-19T10:38:34.190Z,3.70
2023-05-19T10:41:07.197Z,4.72
2023-05-19T10:43:52.841Z,2.92
2023-05-19T10:46:24.064Z,3.20
2023-05-19T10:48:52.317Z,3.35
2023-05-19T10:51:21.625Z,3.58
2023-05-19T10:53:50.974Z,5.63
2023-05-19T10:56:33.518Z,3.00
2023-05-19T10:59:02.183Z,4.07
2023-05-19T11:01:37.785Z,3.25
2023-05-19T11:04:06.755Z,4.38
2023-05-19T11:06:36.398Z,3.25
2023-05-19T11:09:14.443Z,2.67
2023-05-19T11:12:04.205Z,4.15
2023-05-19T11:14:33.024Z,3.25
2023-05-19T11:17:01.535Z,2.28
2023-05-19T11:19:29.253Z,4.15
2023-05-19T11:21:58.168Z,3.35
2023-05-19T11:24:58.169Z,4.60
2023-05-19T11:27:25.687Z,3.88
2023-05-19T11:29:56.467Z,3.25
2023-05-19T11:32:27.150Z,3.25
2023-05-19T11:34:56.293Z,3.22
2023-05-19T11:37:24.428Z,3.25
2023-05-19T11:39:53.007Z,5.10
2023-05-19T11:42:20.571Z,3.40
2023-05-19T11:44:48.406Z,3.42
2023-05-19T11:47:16.662Z,4.50
2023-05-19T11:49:45.216Z,4.82
2023-05-19T11:52:12.805Z,4.97
2023-05-19T11:54:42.564Z,5.63
2023-05-19T11:57:14.611Z,4.78
2023-05-19T11:59:46.177Z,4.25
2023-05-19T12:02:14.473Z,5.53
2023-05-19T12:04:42.134Z,4.07
2023-05-19T12:07:09.768Z,6.15
2023-05-19T12:09:37.641Z,5.10
2023-05-19T12:12:05.635Z,6.25
2023-05-19T12:14:33.228Z,5.10
2023-05-19T12:17:10.446Z,5.88
2023-05-19T12:19:38.438Z,5.60
2023-05-19T12:22:07.952Z,4.38
2023-05-19T12:24:36.785Z,4.93
2023-05-19T12:27:10.931Z,5.47
2023-05-19T12:29:39.096Z,6.05
2023-05-19T12:32:08.636Z,4.38
2023-05-19T12:34:39.963Z,6.50
2023-05-19T12:37:07.534Z,5.38
2023-05-19T12:39:35.188Z,5.05
2023-05-19T12:42:10.150Z,4.97
2023-05-19T12:44:47.948Z,5.82
2023-05-19T12:47:17.067Z,5.85
2023-05-19T12:49:57.874Z,6.25
2023-05-19T12:52:25.870Z,5.53
2023-05-19T12:55:07.742Z,5.45
2023-05-19T12:57:35.847Z,4.78
2023-05-19T13:00:07.580Z,6.05
2023-05-19T13:02:36.944Z,7.45
2023-05-19T13:05:05.513Z,5.13
2023-05-19T13:07:36.055Z,5.30
2023-05-19T13:10:04.646Z,5.72
2023-05-19T13:12:32.144Z,6.15
2023-05-19T13:15:00.704Z,6.95
2023-05-19T13:17:28.252Z,6.03
2023-05-19T13:19:55.804Z,6.18
2023-05-19T13:22:23.437Z,7.55
2023-05-19T13:24:52.131Z,5.25
2023-05-19T13:27:19.643Z,6.03
2023-05-19T13:29:47.199Z,7.78
2023-05-19T13:32:14.718Z,6.68
2023-05-19T13:34:42.260Z,7.32
2023-05-19T13:37:10.368Z,5.50
2023-05-19T13:39:38.635Z,7.78
2023-05-19T13:42:07.092Z,6.63
2023-05-19T13:44:34.648Z,6.47
2023-05-19T13:47:02.192Z,6.57
2023-05-19T13:49:29.903Z,5.70
2023-05-19T13:52:00.645Z,7.18
2023-05-19T13:54:28.311Z,7.15
2023-05-19T13:56:55.914Z,6.25
2023-05-19T13:59:23.599Z,6.65
2023-05-19T14:01:51.383Z,7.80
2023-05-19T14:04:20.167Z,7.88
2023-05-19T14:06:48.061Z,5.90
2023-05-19T14:09:16.593Z,5.10
2023-05-19T14:11:44.690Z,6.88
2023-05-19T14:14:12.185Z,7.75
2023-05-19T14:16:40.787Z,6.85
2023-05-19T14:19:08.742Z,7.88
2023-05-19T14:21:37.469Z,7.22
2023-05-19T14:24:05.194Z,6.40
2023-05-19T14:26:33.509Z,5.05
2023-05-19T14:29:01.562Z,6.88
2023-05-19T14:31:30.158Z,6.72
2023-05-19T14:33:57.714Z,5.20
2023-05-19T14:36:25.197Z,5.95
2023-05-19T14:38:52.793Z,6.28
2023-05-19T14:41:20.297Z,6.78
2023-05-19T14:43:48.878Z,6.15
2023-05-19T14:46:16.545Z,6.55
2023-05-19T14:48:44.213Z,6.38
2023-05-19T14:51:11.685Z,7.07
2023-05-19T14:53:39.238Z,5.32
2023-05-19T14:56:07.096Z,5.75
2023-05-19T14:58:34.630Z,6.50
2023-05-19T15:01:02.286Z,4.43
2023-05-19T15:03:29.875Z,5.68
2023-05-19T15:05:57.442Z,5.68
2023-05-19T15:08:25.005Z,5.93
2023-05-19T15:10:52.800Z,5.55
2023-05-19T15:13:22.013Z,6.75
2023-05-19T15:15:49.554Z,4.82
2023-05-19T15:18:19.181Z,4.88
2023-05-19T15:20:47.165Z,5.00
2023-05-19T15:23:14.712Z,4.90
2023-05-19T15:25:42.280Z,4.88
2023-05-19T15:28:10.544Z,4.70
2023-05-19T15:30:38.578Z,6.38
2023-05-19T15:33:06.204Z,4.20
2023-05-19T15:35:33.927Z,5.15
2023-05-19T15:38:06.715Z,5.43
2023-05-19T15:40:34.678Z,4.80
2023-05-19T15:43:05.915Z,4.88
2023-05-19T15:45:33.457Z,4.80
2023-05-19T15:48:01.327Z,6.07
2023-05-19T15:50:28.906Z,5.10
2023-05-19T15:52:56.491Z,5.38
2023-05-19T15:55:24.031Z,4.53
2023-05-19T15:57:51.522Z,4.63
2023-05-19T16:00:19.498Z,4.53
2023-05-19T16:02:47.279Z,5.68
2023-05-19T16:05:14.905Z,7.78
2023-05-19T16:07:42.767Z,5.07
2023-05-19T16:10:10.427Z,5.80
2023-05-19T16:12:37.990Z,6.72
2023-05-19T16:15:05.820Z,5.28
2023-05-19T16:17:33.458Z,6.18
2023-05-19T16:20:01.246Z,4.40
2023-05-19T16:22:28.893Z,5.13
2023-05-19T16:24:56.678Z,5.13
2023-05-19T16:27:24.217Z,4.65
2023-05-19T16:29:51.704Z,5.35
2023-05-19T16:32:19.135Z,4.88
2023-05-19T16:34:46.801Z,4.22
2023-05-19T16:37:14.292Z,4.82
2023-05-19T16:39:42.087Z,5.85
2023-05-19T16:42:09.637Z,4.47
2023-05-19T16:44:37.180Z,4.68
2023-05-19T16:47:04.914Z,5.20
2023-05-19T16:49:34.458Z,4.85
2023-05-19T16:52:02.716Z,4.25
2023-05-19T16:54:30.299Z,4.40
2023-05-19T16:56:58.397Z,4.57
2023-05-19T16:59:25.986Z,5.10
2023-05-19T17:01:53.486Z,4.63
2023-05-19T17:04:20.949Z,5.13
2023-05-19T17:06:48.800Z,5.35
2023-05-19T17:09:16.397Z,4.40
2023-05-19T17:11:44.001Z,6.40
2023-05-19T17:14:14.702Z,4.68
2023-05-19T17:16:42.212Z,5.93
2023-05-19T17:19:09.825Z,6.53
2023-05-19T17:21:37.594Z,5.35
2023-05-19T17:24:05.176Z,6.65
2023-05-19T17:26:33.036Z,6.00
2023-05-19T17:29:00.579Z,5.55
2023-05-19T17:31:28.204Z,6.35
2023-05-19T17:33:55.770Z,5.70
2023-05-19T17:36:23.343Z,7.35
2023-05-19T17:38:51.230Z,7.10
2023-05-19T17:41:19.061Z,6.05
2023-05-19T17:43:46.649Z,5.97
2023-05-19T17:46:14.180Z,6.07
2023-05-19T17:48:41.792Z,7.03
2023-05-19T17:51:09.531Z,7.10
2023-05-19T17:53:37.294Z,7.90
2023-05-19T17:56:07.581Z,7.10
2023-05-19T17:58:35.401Z,5.75
2023-05-19T18:01:03.157Z,5.85
2023-05-19T18:03:31.390Z,5.97
2023-05-19T18:05:59.651Z,6.50
2023-05-19T18:08:27.631Z,5.40
2023-05-19T18:10:56.550Z,5.95
2023-05-19T18:13:24.337Z,7.50
2023-05-19T18:15:53.241Z,5.53
2023-05-19T18:18:20.784Z,6.03
2023-05-19T18:20:48.891Z,5.60
2023-05-19T18:23:16.631Z,6.10
2023-05-19T18:25:49.535Z,7.18
2023-05-19T18:28:17.042Z,5.18
2023-05-19T18:30:44.796Z,6.22
2023-05-19T18:33:12.741Z,6.97
2023-05-19T18:35:40.396Z,6.55
2023-05-19T18:38:07.990Z,5.38
2023-05-19T18:40:35.904Z,5.43
2023-05-19T18:43:03.509Z,4.90
2023-05-19T18:45:31.317Z,4.70
2023-05-19T18:47:58.980Z,5.55
2023-05-19T18:50:27.040Z,6.50
2023-05-19T18:52:55.107Z,5.82
2023-05-19T18:55:25.259Z,4.70
2023-05-19T18:57:54.636Z,4.53
2023-05-19T19:00:22.141Z,4.70
2023-05-19T19:02:50.182Z,5.40
2023-05-19T19:05:17.942Z,4.68
2023-05-19T19:07:45.691Z,4.65
2023-05-19T19:10:13.280Z,5.55
2023-05-19T19:12:40.840Z,5.32
2023-05-19T19:15:08.570Z,5.65
2023-05-19T19:17:36.167Z,5.63
2023-05-19T19:20:03.812Z,5.82
2023-05-19T19:22:31.452Z,5.22
2023-05-19T19:24:58.975Z,4.88
2023-05-19T19:27:31.514Z,5.95
2023-05-19T19:29:59.326Z,5.22
2023-05-19T19:32:27.053Z,5.38
2023-05-19T19:34:54.583Z,5.18
2023-05-19T19:37:22.138Z,4.63
2023-05-19T19:39:49.695Z,5.18
2023-05-19T19:42:17.421Z,4.22
2023-05-19T19:44:44.984Z,6.78
2023-05-19T19:47:12.628Z,4.97
2023-05-19T19:49:40.188Z,4.57
2023-05-19T19:52:07.752Z,5.97
2023-05-19T19:54:35.377Z,5.20
2023-05-19T19:57:02.911Z,4.97
2023-05-19T19:59:30.724Z,4.80
2023-05-19T20:01:58.355Z,6.72
2023-05-19T20:04:26.108Z,6.15
2023-05-19T20:06:54.072Z,5.70
2023-05-19T20:09:21.657Z,6.10
2023-05-19T20:11:49.197Z,6.38
2023-05-19T20:14:19.427Z,6.45
2023-05-19T20:16:47.332Z,5.50
2023-05-19T20:19:14.886Z,5.38
2023-05-19T20:21:42.450Z,6.95
2023-05-19T20:24:10.036Z,4.90
2023-05-19T20:26:37.560Z,4.93
2023-05-19T20:29:05.149Z,6.38
2023-05-19T20:31:32.640Z,5.50
2023-05-19T20:34:01.506Z,6.15
2023-05-19T20:36:29.401Z,6.22
2023-05-19T20:38:56.907Z,5.75
2023-05-19T20:41:24.449Z,4.80
2023-05-19T20:43:52.114Z,6.10
2023-05-19T20:46:19.649Z,6.05
2023-05-19T20:48:47.153Z,5.95
2023-05-19T20:51:14.972Z,6.05
2023-05-19T20:53:43.328Z,8.32
2023-05-19T20:56:13.836Z,6.35
2023-05-19T20:58:41.524Z,7.28
2023-05-19T21:01:09.373Z,5.95
2023-05-19T21:03:37.055Z,6.50
2023-05-19T21:06:04.650Z,5.25
2023-05-19T21:08:32.215Z,9.25
2023-05-19T21:11:00.056Z,7.05
2023-05-19T21:13:27.634Z,5.85
2023-05-19T21:15:57.000Z,6.38
2023-05-19T21:18:24.628Z,6.18
2023-05-19T21:20:53.011Z,6.63
2023-05-19T21:23:20.589Z,6.15
2023-05-19T21:25:48.089Z,6.18
2023-05-19T21:28:15.631Z,6.15
2023-05-19T21:30:43.594Z,5.20
2023-05-19T21:33:12.322Z,5.05
2023-05-19T21:35:39.902Z,6.00
2023-05-19T21:38:22.158Z,6.10
2023-05-19T21:40:51.559Z,6.78
2023-05-19T21:43:19.958Z,5.13
2023-05-19T21:45:47.487Z,6.50
2023-05-19T21:48:15.102Z,5.20
2023-05-19T21:50:42.648Z,5.22
2023-05-19T21:53:10.404Z,6.97
2023-05-19T21:55:37.976Z,5.78
2023-05-19T21:58:05.510Z,6.75
2023-05-19T22:00:33.259Z,5.85
2023-05-19T22:03:01.252Z,7.05
2023-05-19T22:05:30.482Z,7.53
2023-05-19T22:07:58.445Z,6.05
2023-05-19T22:10:25.930Z,6.30
2023-05-19T22:12:53.694Z,7.18
2023-05-19T22:15:21.482Z,5.38
2023-05-19T22:17:49.060Z,6.53
2023-05-19T22:20:17.237Z,5.55
2023-05-19T22:22:45.066Z,7.20
2023-05-19T22:25:12.608Z,5.57
2023-05-19T22:27:40.143Z,5.40
2023-05-19T22:30:08.323Z,5.43
2023-05-19T22:32:36.286Z,5.38
2023-05-19T22:35:03.919Z,6.65
2023-05-19T22:37:32.554Z,6.25
2023-05-19T22:40:02.961Z,5.15
2023-05-19T22:42:30.659Z,6.35
2023-05-19T22:44:58.190Z,7.32
2023-05-19T22:47:25.804Z,6.03
2023-05-19T22:49:54.827Z,7.20
2023-05-19T22:52:23.113Z,7.10
2023-05-19T22:54:50.620Z,7.13
2023-05-19T22:57:18.452Z,6.93
2023-05-19T22:59:46.196Z,8.98
2023-05-19T23:02:14.058Z,7.88
2023-05-19T23:04:41.605Z,8.85
2023-05-19T23:07:09.444Z,7.97
2023-05-19T23:09:36.969Z,7.18
2023-05-19T23:12:04.541Z,9.35
2023-05-19T23:14:32.269Z,7.72
2023-05-19T23:16:59.984Z,8.25
2023-05-19T23:19:28.810Z,7.45
2023-05-19T23:21:56.418Z,8.80
2023-05-19T23:24:25.226Z,8.90
2023-05-19T23:26:54.413Z,7.18
2023-05-19T23:29:21.879Z,7.97
2023-05-19T23:31:49.468Z,7.93
2023-05-19T23:34:17.010Z,9.07
2023-05-19T23:36:44.616Z,8.63
2023-05-19T23:39:12.345Z,7.30
2023-05-19T23:41:39.845Z,7.95
2023-05-19T23:44:07.420Z,8.07
2023-05-19T23:46:36.686Z,7.50
2023-05-19T23:49:04.270Z,6.97
2023-05-19T23:51:32.018Z,8.50
2023-05-19T23:53:59.615Z,7.13
2023-05-19T23:56:27.128Z,8.68
2023-05-19T23:58:54.540Z,7.85
